Time;durP1;ratioP1;P1;durP2;ratioP2;P2;SDS_P1;SDS_P2;PMS_P1;PMS_P2;Temp;Humidity;BMP_temperature;BMP_pressure;BME280_temperature;BME280_humidity;BME280_pressure;Samples;Min_cycle;Max_cycle;Signal;HPM_P1;HPM_P2
2021/04/18 00:02:03;;;;;;;4.40;1.48;;;6.90;99.90;;;5.93;55.82;97845.22;5006423;28;20100;-65
2021/04/18 00:04:30;;;;;;;5.22;1.52;;;6.90;99.90;;;5.88;55.79;97840.16;5006499;28;20050;-65
2021/04/18 00:06:57;;;;;;;7.93;1.77;;;6.80;99.90;;;5.92;55.99;97840.97;5008328;28;20061;-65
2021/04/18 00:09:23;;;;;;;6.40;1.33;;;6.80;99.90;;;5.79;54.82;97835.19;5006724;28;20088;-65
2021/04/18 00:11:50;;;;;;;6.03;1.70;;;6.70;99.90;;;5.79;54.34;97838.63;5008788;28;20099;-65
2021/04/18 00:14:16;;;;;;;2.97;1.33;;;6.70;99.90;;;5.71;54.54;97837.09;5007366;28;20478;-65
2021/04/18 00:16:43;;;;;;;3.05;1.45;;;6.60;99.90;;;5.89;54.99;97834.16;5007438;28;20050;-65
2021/04/18 00:19:09;;;;;;;5.10;1.65;;;6.70;99.90;;;5.71;56.12;97831.94;5007003;28;20054;-65
2021/04/18 00:21:36;;;;;;;5.60;1.50;;;6.60;99.90;;;5.60;57.80;97827.81;5007073;28;20414;-65
2021/04/18 00:24:03;;;;;;;6.20;1.80;;;6.50;99.90;;;5.58;56.22;97831.31;5002159;28;20120;-65
2021/04/18 00:26:30;;;;;;;3.97;1.58;;;6.50;99.90;;;5.61;55.47;97829.53;5007036;28;20203;-65
2021/04/18 00:28:56;;;;;;;4.57;1.88;;;6.50;99.90;;;5.65;56.63;97830.31;5006685;28;20139;-65
2021/04/18 00:31:23;;;;;;;7.13;1.95;;;6.50;99.90;;;5.67;58.09;97823.41;5006837;28;20050;-65
2021/04/18 00:33:50;;;;;;;4.55;1.38;;;6.50;99.90;;;5.61;57.26;97820.94;5003197;28;20046;-65
2021/04/18 00:36:26;;;;;;;5.80;1.40;;;6.50;99.90;;;5.63;57.49;97819.19;5004107;28;20510;-65
2021/04/18 00:38:52;;;;;;;6.63;1.42;;;6.50;99.90;;;5.66;57.12;97814.00;5008144;28;20494;-65
2021/04/18 00:41:19;;;;;;;5.90;1.80;;;6.50;99.90;;;5.72;56.79;97811.28;5002532;28;20042;-65
2021/04/18 00:43:45;;;;;;;4.78;1.48;;;6.50;99.90;;;5.58;57.64;97806.38;5007651;28;20053;-65
2021/04/18 00:46:12;;;;;;;6.35;1.50;;;6.60;99.90;;;5.63;57.42;97814.91;4996789;28;20073;-65
2021/04/18 00:48:41;;;;;;;5.25;1.10;;;6.60;99.90;;;5.50;57.56;97802.28;5008070;28;20333;-65
2021/04/18 00:51:13;;;;;;;9.75;2.08;;;6.60;99.90;;;5.56;56.78;97805.56;5022944;28;20042;-65
2021/04/18 00:53:40;;;;;;;3.80;1.13;;;6.60;99.90;;;5.67;56.34;97802.78;5000025;28;20045;-65
2021/04/18 00:56:08;;;;;;;4.93;1.30;;;6.50;99.90;;;5.72;56.45;97800.97;5005048;28;20107;-65
2021/04/18 00:58:36;;;;;;;3.55;1.42;;;6.50;99.90;;;5.57;57.29;97801.28;5011640;28;20118;-65
2021/04/18 01:01:05;;;;;;;3.85;1.45;;;6.50;99.90;;;5.60;56.71;97796.06;5021990;28;20137;-65
2021/04/18 01:03:32;;;;;;;5.22;1.58;;;6.40;99.90;;;5.55;56.80;97797.91;5005532;28;20054;-65
2021/04/18 01:06:00;;;;;;;6.35;1.73;;;6.40;99.90;;;5.42;57.13;97799.84;5004962;28;20125;-65
2021/04/18 01:08:27;;;;;;;5.38;1.55;;;6.40;99.90;;;5.53;56.44;97791.91;5011411;28;20053;-65
2021/04/18 01:10:54;;;;;;;8.70;2.00;;;6.40;99.90;;;5.56;56.81;97800.41;5009024;28;20514;-65
2021/04/18 01:13:20;;;;;;;5.65;2.40;;;6.40;99.90;;;5.55;57.19;97803.88;5010086;28;20104;-65
2021/04/18 01:15:47;;;;;;;6.40;1.60;;;6.40;99.90;;;5.53;57.19;97803.06;5008974;28;20042;-65
2021/04/18 01:18:14;;;;;;;5.65;1.80;;;6.40;99.90;;;5.51;57.47;97806.53;5010536;28;20034;-65
2021/04/18 01:20:41;;;;;;;12.82;1.73;;;6.30;99.90;;;5.51;57.58;97803.97;5011860;28;20463;-65
2021/04/18 01:23:07;;;;;;;5.03;1.60;;;6.30;99.90;;;5.52;57.40;97800.50;5010033;28;20042;-65
2021/04/18 01:25:40;;;;;;;7.70;1.63;;;6.30;99.90;;;5.47;57.33;97804.91;5010190;28;20142;-65
2021/04/18 01:28:08;;;;;;;7.68;1.77;;;6.40;99.90;;;5.45;57.41;97804.91;5008893;28;20061;-65
2021/04/18 01:30:35;;;;;;;9.93;1.92;;;6.40;99.90;;;5.53;57.34;97802.22;5008293;28;20048;-65
2021/04/18 01:33:03;;;;;;;3.72;1.52;;;6.40;99.90;;;5.53;57.66;97800.50;4990717;28;20407;-65
2021/04/18 01:35:31;;;;;;;4.78;1.42;;;6.40;99.90;;;5.48;57.59;97789.44;5025775;28;20521;-65
2021/04/18 01:37:58;;;;;;;5.97;1.63;;;6.40;99.90;;;5.49;57.29;97800.56;4998759;28;20390;-65
2021/04/18 01:40:26;;;;;;;7.35;1.60;;;6.40;99.90;;;5.44;57.86;97793.78;5005151;28;20131;-65
2021/04/18 01:42:52;;;;;;;4.22;1.10;;;6.40;99.90;;;5.52;57.53;97792.78;5008130;28;20037;-65
2021/04/18 01:45:19;;;;;;;5.85;1.38;;;6.40;99.90;;;5.40;58.57;97786.13;5004995;28;20046;-65
2021/04/18 01:47:47;;;;;;;4.40;1.20;;;6.40;99.90;;;5.57;59.19;97791.84;5009883;28;20127;-65
2021/04/18 01:50:17;;;;;;;4.45;1.20;;;6.40;99.90;;;5.57;58.56;97786.69;5010085;28;20380;-65
2021/04/18 01:52:45;;;;;;;5.47;1.60;;;6.40;99.90;;;5.58;58.51;97785.78;5010610;28;20137;-65
2021/04/18 01:55:14;;;;;;;4.97;1.52;;;6.50;99.90;;;5.63;58.50;97786.56;5001160;28;20039;-65
2021/04/18 01:57:40;;;;;;;4.20;1.17;;;6.50;99.90;;;5.63;57.74;97780.56;5004080;28;20473;-65
2021/04/18 02:00:11;;;;;;;3.58;1.23;;;6.50;99.90;;;5.49;58.97;97783.41;5009928;28;20099;-65
2021/04/18 02:02:37;;;;;;;3.75;1.30;;;6.50;99.90;;;5.37;59.21;97779.31;5001249;28;20046;-65
2021/04/18 02:05:05;;;;;;;5.97;1.42;;;6.50;99.90;;;5.52;58.21;97780.78;5010523;28;20054;-65
2021/04/18 02:07:32;;;;;;;5.70;1.40;;;6.50;99.90;;;5.49;58.64;97775.66;5009260;28;20049;-65
2021/04/18 02:09:59;;;;;;;5.55;1.33;;;6.50;99.90;;;5.62;58.24;97777.13;5010418;28;20041;-65
2021/04/18 02:12:25;;;;;;;5.20;1.50;;;6.50;99.90;;;5.48;59.04;97783.44;4983162;28;20069;-65
2021/04/18 02:14:52;;;;;;;5.18;1.60;;;6.40;99.90;;;5.41;59.26;97785.28;5009606;28;20402;-65
2021/04/18 02:17:18;;;;;;;6.15;1.58;;;6.40;99.90;;;5.34;60.30;97781.13;5002721;28;20402;-65
2021/04/18 02:19:45;;;;;;;4.60;1.20;;;6.30;99.90;;;5.40;59.32;97784.41;5010025;28;20049;-65
2021/04/18 02:22:12;;;;;;;4.53;1.63;;;6.30;99.90;;;5.29;60.23;97780.34;5021845;28;20061;-65
2021/04/18 02:24:38;;;;;;;8.80;1.80;;;6.30;99.90;;;5.22;59.89;97788.19;5007944;28;20046;-64
2021/04/18 02:27:05;;;;;;;5.15;1.50;;;6.30;99.90;;;5.27;60.43;97782.97;4990451;28;20096;-64
2021/04/18 02:29:32;;;;;;;3.08;1.30;;;6.30;99.90;;;5.20;60.58;97784.78;5008950;28;20053;-64
2021/04/18 02:31:58;;;;;;;3.60;1.60;;;6.20;99.90;;;5.30;60.12;97777.75;5008149;28;20046;-64
2021/04/18 02:34:25;;;;;;;9.48;1.95;;;6.20;99.90;;;5.30;59.82;97782.06;5004404;28;20046;-65
2021/04/18 02:36:52;;;;;;;5.32;1.65;;;6.20;99.90;;;5.30;59.13;97782.06;5007374;28;20045;-64
2021/04/18 02:39:18;;;;;;;9.35;2.13;;;6.20;99.90;;;5.19;59.49;97779.66;5007877;28;20538;-64
2021/04/18 02:41:45;;;;;;;6.90;1.90;;;6.20;99.90;;;5.18;58.87;97777.97;5007237;28;20056;-65
2021/04/18 02:44:11;;;;;;;5.97;1.95;;;6.20;99.90;;;5.44;57.83;97786.06;5009309;28;20037;-64
2021/04/18 02:46:38;;;;;;;6.72;1.80;;;6.30;99.90;;;5.43;58.54;97766.34;5008240;28;20107;-64
2021/04/18 02:49:05;;;;;;;4.35;1.75;;;6.40;99.90;;;5.52;58.65;97773.06;4974931;28;20051;-64
2021/04/18 02:51:32;;;;;;;6.32;2.22;;;6.40;99.90;;;5.45;59.11;97776.59;5004986;28;20057;-65
2021/04/18 02:53:59;;;;;;;5.53;2.22;;;6.40;99.90;;;5.33;59.37;97774.28;5002884;28;20049;-64
2021/04/18 02:56:27;;;;;;;5.97;2.55;;;6.20;99.90;;;5.21;61.26;97775.34;5006540;28;20093;-64
2021/04/18 02:58:54;;;;;;;4.93;1.63;;;6.10;99.90;;;5.15;60.98;97770.28;5009216;28;20100;-64
2021/04/18 03:01:20;;;;;;;5.53;1.80;;;6.10;99.90;;;5.20;61.49;97768.47;5009067;28;20049;-64
2021/04/18 03:03:48;;;;;;;6.07;1.55;;;6.20;99.90;;;5.09;62.20;97784.13;5009467;28;20042;-64
2021/04/18 03:06:14;;;;;;;5.97;1.70;;;6.20;99.90;;;5.06;62.25;97784.16;5006904;28;20402;-64
2021/04/18 03:08:41;;;;;;;4.40;1.60;;;6.00;99.90;;;5.13;62.97;97782.34;5005470;28;20069;-64
2021/04/18 03:11:09;;;;;;;5.53;1.73;;;6.00;99.90;;;4.97;62.90;97780.06;5008268;28;20046;-65
2021/04/18 03:13:36;;;;;;;3.67;1.52;;;6.10;99.90;;;5.13;61.78;97785.78;5000487;28;20054;-64
2021/04/18 03:16:04;;;;;;;6.32;1.80;;;6.10;99.90;;;5.17;62.37;97774.53;5006980;28;20536;-64
2021/04/18 03:18:31;;;;;;;4.07;1.38;;;6.10;99.90;;;5.14;61.64;97773.75;5007284;28;20068;-64
2021/04/18 03:20:57;;;;;;;6.50;1.70;;;6.10;99.90;;;5.22;61.13;97780.47;4998746;28;20050;-65
2021/04/18 03:23:24;;;;;;;7.57;1.50;;;6.10;99.90;;;5.20;60.91;97786.50;5007887;28;20053;-65
2021/04/18 03:25:50;;;;;;;6.43;1.65;;;6.10;99.90;;;5.13;62.62;97774.63;5011471;28;20046;-64
2021/04/18 03:28:17;;;;;;;8.07;1.70;;;6.00;99.90;;;5.15;62.15;97780.59;5015617;28;20101;-65
2021/04/18 03:30:43;;;;;;;6.88;1.80;;;6.00;99.90;;;5.11;62.96;97776.38;5007666;28;20137;-64
2021/04/18 03:33:11;;;;;;;7.32;1.67;;;6.00;99.90;;;5.09;62.86;97785.88;5003636;28;20125;-64
2021/04/18 03:35:38;;;;;;;6.10;1.80;;;6.00;99.90;;;5.05;62.91;97789.34;5022116;28;20359;-64
2021/04/18 03:38:05;;;;;;;6.65;1.98;;;5.90;99.90;;;4.99;62.87;97787.72;4996826;28;20104;-64
2021/04/18 03:40:32;;;;;;;6.75;2.00;;;5.90;99.90;;;4.97;62.58;97786.91;5009380;28;20099;-64
2021/04/18 03:42:59;;;;;;;6.05;1.88;;;5.80;99.90;;;4.93;63.04;97790.41;5006612;28;20045;-64
2021/04/18 03:45:26;;;;;;;6.57;2.22;;;5.80;99.90;;;4.94;63.30;97790.38;5005951;28;20050;-64
2021/04/18 03:47:52;;;;;;;8.70;2.30;;;5.80;99.90;;;4.88;62.39;97784.47;4999249;28;20376;-64
2021/04/18 03:50:19;;;;;;;5.65;2.05;;;5.80;99.90;;;4.84;62.40;97778.56;5016479;28;20042;-64
2021/04/18 03:52:48;;;;;;;10.30;2.10;;;5.80;99.90;;;4.89;60.97;97779.31;5008244;28;20199;-64
2021/04/18 03:55:16;;;;;;;6.15;1.88;;;5.80;99.90;;;4.91;61.04;97781.88;5016582;28;20556;-64
2021/04/18 03:57:43;;;;;;;6.90;2.22;;;5.70;99.90;;;5.00;59.38;97774.84;5005242;28;20100;-65
2021/04/18 04:00:10;;;;;;;10.82;2.80;;;5.80;99.90;;;4.92;61.13;97775.84;5005096;28;20046;-65
2021/04/18 04:02:37;;;;;;;9.85;2.22;;;5.70;99.90;;;4.79;60.52;97775.22;5006189;28;20070;-64
2021/04/18 04:05:05;;;;;;;6.70;2.30;;;5.70;99.90;;;4.69;61.25;97774.50;5008862;28;20463;-64
2021/04/18 04:07:32;;;;;;;5.38;2.13;;;5.60;99.90;;;4.65;61.05;97779.72;5008688;28;20050;-64
2021/04/18 04:09:59;;;;;;;4.65;1.80;;;5.50;99.90;;;4.64;61.13;97778.03;5006589;28;20049;-64
2021/04/18 04:12:27;;;;;;;7.60;1.85;;;5.50;99.90;;;4.59;61.26;97784.09;5002505;28;20042;-65
2021/04/18 04:14:54;;;;;;;4.75;2.13;;;5.40;99.90;;;4.51;61.60;97779.94;5017674;28;20046;-64
2021/04/18 04:17:20;;;;;;;3.80;1.88;;;5.40;99.90;;;4.55;61.34;97782.44;5018743;28;20046;-65
2021/04/18 04:19:48;;;;;;;7.28;2.58;;;5.40;99.90;;;4.58;60.57;97787.53;5006559;28;20112;-64
2021/04/18 04:22:14;;;;;;;5.75;2.17;;;5.40;99.90;;;4.62;60.74;97778.03;5007946;28;20042;-64
2021/04/18 04:24:41;;;;;;;8.57;2.35;;;5.40;99.90;;;4.55;61.18;97785.00;5008331;28;20115;-64
2021/04/18 04:27:08;;;;;;;10.25;1.88;;;5.40;99.90;;;4.51;60.68;97782.50;5005357;28;20046;-64
2021/04/18 04:29:35;;;;;;;11.05;2.65;;;5.40;99.90;;;4.48;60.84;97774.84;5022154;28;20049;-64
2021/04/18 04:32:01;;;;;;;7.15;2.35;;;5.40;99.90;;;4.53;60.21;97778.19;5008502;28;20106;-64
2021/04/18 04:34:28;;;;;;;6.20;2.53;;;5.50;99.90;;;4.70;60.75;97790.75;5010091;28;20042;-65
2021/04/18 04:36:54;;;;;;;7.22;2.63;;;5.50;99.90;;;4.61;61.58;97791.78;5010590;28;20038;-64
2021/04/18 04:39:21;;;;;;;11.63;2.28;;;5.40;99.90;;;4.38;63.00;97795.53;5012305;28;20046;-64
2021/04/18 04:41:47;;;;;;;8.57;2.47;;;5.40;99.90;;;4.21;65.12;97800.06;5011695;28;20396;-64
2021/04/18 04:44:16;;;;;;;8.30;1.90;;;5.30;99.90;;;4.14;65.01;97793.31;5003312;28;20411;-64
2021/04/18 04:46:46;;;;;;;7.75;2.53;;;5.20;99.90;;;4.15;64.74;97795.00;5011119;28;20049;-64
2021/04/18 04:49:14;;;;;;;4.93;1.73;;;5.10;99.90;;;4.13;64.52;97789.91;4994634;28;20056;-65
2021/04/18 04:51:40;;;;;;;8.30;2.25;;;5.10;99.90;;;4.20;63.53;97790.66;5011427;28;20100;-64
2021/04/18 04:54:10;;;;;;;6.35;2.25;;;5.20;99.90;;;4.27;63.37;97786.28;5026415;28;20046;-64
2021/04/18 04:56:37;;;;;;;11.52;2.28;;;5.10;99.90;;;4.17;63.75;97794.13;5027228;28;20461;-65
2021/04/18 04:59:05;;;;;;;8.02;2.05;;;5.00;99.90;;;4.10;64.42;97797.63;5011093;28;20472;-65
2021/04/18 05:01:31;;;;;;;5.10;2.53;;;4.90;99.90;;;4.10;63.84;97807.06;5010457;28;20077;-64
2021/04/18 05:03:58;;;;;;;6.40;2.67;;;4.90;99.90;;;4.06;64.27;97801.13;5005166;28;20065;-64
2021/04/18 05:06:25;;;;;;;6.15;2.40;;;4.90;99.90;;;4.10;63.63;97807.06;5010317;28;20459;-64
2021/04/18 05:08:51;;;;;;;12.57;2.97;;;4.90;99.90;;;4.04;63.94;97801.97;5015189;28;20046;-64
2021/04/18 05:11:17;;;;;;;5.72;2.35;;;4.90;99.90;;;3.89;64.82;97805.63;5011238;28;20548;-64
2021/04/18 05:13:44;;;;;;;5.90;2.75;;;4.80;99.90;;;3.90;64.43;97808.19;5009174;28;20180;-65
2021/04/18 05:16:10;;;;;;;8.85;2.65;;;4.80;99.90;;;3.96;64.00;97800.38;5011710;28;20126;-64
2021/04/18 05:18:43;;;;;;;6.53;2.50;;;4.80;99.90;;;3.95;64.20;97806.38;5009556;28;20073;-64
2021/04/18 05:21:12;;;;;;;7.80;2.53;;;4.90;99.90;;;4.05;63.76;97806.28;5026685;28;20120;-64
2021/04/18 05:23:39;;;;;;;6.80;3.13;;;4.90;99.90;;;4.17;63.57;97806.09;5009093;28;20145;-64
2021/04/18 05:26:07;;;;;;;8.98;2.80;;;5.00;99.90;;;4.25;64.12;97806.00;5010909;28;20054;-64
2021/04/18 05:28:34;;;;;;;8.30;2.75;;;5.10;99.90;;;4.16;64.55;97812.13;5009834;28;20064;-64
2021/04/18 05:31:02;;;;;;;9.40;2.22;;;5.20;99.90;;;4.17;63.87;97812.09;4999851;28;20454;-65
2021/04/18 05:33:29;;;;;;;8.48;3.03;;;5.30;99.90;;;4.33;62.17;97811.88;5010972;28;20045;-64
2021/04/18 05:35:56;;;;;;;6.88;2.38;;;5.30;99.90;;;4.50;61.45;97811.66;4988430;28;20145;-64
2021/04/18 05:38:22;;;;;;;4.38;1.45;;;5.40;99.90;;;4.75;61.54;97807.00;4994295;28;20114;-64
2021/04/18 05:40:49;;;;;;;4.47;2.00;;;5.70;99.90;;;4.71;62.36;97806.19;5010115;28;20069;-65
2021/04/18 05:43:16;;;;;;;9.45;2.33;;;5.80;99.90;;;4.81;62.42;97807.75;5010203;28;20046;-64
2021/04/18 05:45:42;;;;;;;5.05;2.20;;;5.90;99.90;;;4.92;62.89;97804.13;5008747;28;20069;-65
2021/04/18 05:48:09;;;;;;;8.70;2.67;;;5.90;99.90;;;4.94;61.52;97810.94;5010789;28;20049;-65
2021/04/18 05:50:36;;;;;;;10.73;2.65;;;5.90;99.90;;;5.07;62.73;97813.34;5010101;28;20156;-64
2021/04/18 05:53:02;;;;;;;8.45;2.30;;;6.00;99.90;;;5.00;63.07;97805.72;5010178;28;20049;-64
2021/04/18 05:55:29;;;;;;;5.65;2.25;;;6.20;99.90;;;5.21;63.06;97813.94;5009101;28;20100;-64
2021/04/18 05:57:56;;;;;;;6.90;2.80;;;6.30;99.90;;;5.33;62.82;97816.28;5008783;28;20554;-64
2021/04/18 06:00:22;;;;;;;9.00;2.47;;;6.40;99.90;;;5.29;62.14;97817.25;5010752;28;20057;-64
2021/04/18 06:02:49;;;;;;;8.35;4.45;;;6.40;99.90;;;5.29;62.01;97811.22;5010091;28;20104;-64
2021/04/18 06:05:16;;;;;;;10.57;3.97;;;6.40;99.90;;;5.33;60.51;97818.88;4981350;28;20049;-64
2021/04/18 06:07:44;;;;;;;9.50;3.92;;;6.40;99.90;;;5.40;60.51;97819.59;5025308;28;20489;-64
2021/04/18 06:10:11;;;;;;;7.82;4.15;;;6.50;99.90;;;5.52;60.18;97821.97;5006831;28;20042;-64
2021/04/18 06:12:38;;;;;;;10.30;4.65;;;6.60;99.90;;;5.62;59.97;97820.91;5008046;28;20054;-66
2021/04/18 06:15:07;;;;;;;11.10;4.85;;;6.70;99.90;;;5.69;59.55;97819.06;5008968;28;20124;-66
2021/04/18 06:17:34;;;;;;;11.88;5.18;;;6.70;99.90;;;5.87;58.99;97823.03;4992271;28;20088;-66
2021/04/18 06:20:01;;;;;;;11.95;4.90;;;6.90;99.90;;;6.15;58.43;97817.34;5002566;28;20042;-66
2021/04/18 06:22:27;;;;;;;9.98;5.13;;;7.10;99.90;;;6.12;58.83;97814.84;5008268;28;20115;-66
2021/04/18 06:24:54;;;;;;;10.98;5.18;;;7.10;99.90;;;6.07;58.44;97814.94;5009860;28;20038;-65
2021/04/18 06:27:20;;;;;;;13.30;4.85;;;7.20;99.90;;;6.35;58.25;97809.19;5020032;28;20050;-65
2021/04/18 06:29:47;;;;;;;12.25;5.53;;;7.50;99.90;;;6.39;57.60;97814.22;5009899;28;20042;-65
2021/04/18 06:32:13;;;;;;;14.90;5.78;;;7.60;99.90;;;6.18;57.11;97817.25;5009577;28;20034;-66
2021/04/18 06:34:46;;;;;;;13.68;6.55;;;7.50;99.90;;;6.30;57.10;97813.59;5004906;28;20042;-65
2021/04/18 06:37:13;;;;;;;15.40;7.25;;;7.50;99.90;;;6.41;56.71;97811.59;5007156;28;20141;-65
2021/04/18 06:39:39;;;;;;;11.38;5.88;;;7.60;99.90;;;6.57;56.48;97812.09;5010908;28;20058;-65
2021/04/18 06:42:06;;;;;;;13.73;6.38;;;7.80;99.90;;;6.64;56.37;97814.53;5008298;28;20084;-65
2021/04/18 06:44:33;;;;;;;15.95;7.72;;;7.90;99.90;;;6.55;55.81;97814.75;5015235;28;20449;-66
2021/04/18 06:47:01;;;;;;;12.98;6.75;;;7.80;99.90;;;6.43;56.79;97815.00;5008989;28;20467;-65
2021/04/18 06:49:29;;;;;;;14.13;6.82;;;7.70;99.90;;;6.70;56.31;97816.09;5008600;28;20153;-66
2021/04/18 06:51:57;;;;;;;15.80;7.47;;;7.90;99.90;;;6.89;55.97;97808.81;5009835;28;20475;-65
2021/04/18 06:54:23;;;;;;;10.82;6.72;;;8.00;99.90;;;6.73;55.56;97815.19;5008917;28;20045;-65
2021/04/18 06:56:50;;;;;;;12.38;6.90;;;8.00;99.90;;;6.61;55.28;97816.31;5009429;28;20099;-66
2021/04/18 06:59:17;;;;;;;11.38;6.63;;;7.80;99.90;;;6.80;56.31;97820.19;4976738;28;20058;-65
2021/04/18 07:01:43;;;;;;;12.30;6.50;;;8.10;99.90;;;7.09;55.69;97819.47;5004885;28;20507;-65
2021/04/18 07:04:19;;;;;;;13.32;6.78;;;8.30;99.90;;;7.03;54.92;97824.78;4990830;28;20129;-65
2021/04/18 07:06:55;;;;;;;12.80;6.68;;;8.50;99.90;;;7.17;54.55;97823.59;5021515;28;20050;-66
2021/04/18 07:09:24;;;;;;;12.07;6.50;;;8.50;99.90;;;7.26;55.00;97825.94;5009210;28;20199;-66
2021/04/18 07:11:58;;;;;;;14.95;7.15;;;8.80;99.90;;;7.37;54.14;97818.78;5004707;28;20050;-67
2021/04/18 07:14:33;;;;;;;12.88;6.63;;;8.70;99.90;;;7.39;54.13;97818.72;5005492;28;20046;-65
2021/04/18 07:17:08;;;;;;;14.05;7.15;;;8.90;99.90;;;7.24;54.34;97819.97;5017990;28;20120;-66
2021/04/18 07:19:46;;;;;;;13.82;6.47;;;8.80;99.90;;;7.47;53.83;97811.63;5009279;28;20073;-66
2021/04/18 07:22:27;;;;;;;12.27;6.80;;;8.80;99.90;;;7.33;54.08;97805.09;5009685;28;20139;-65
2021/04/18 07:24:56;;;;;;;12.27;5.70;;;8.70;99.90;;;7.32;54.18;97812.88;5008240;28;20045;-66
2021/04/18 07:27:23;;;;;;;12.73;6.00;;;8.70;99.90;;;7.41;54.29;97812.66;5009270;28;20104;-66
2021/04/18 07:29:57;;;;;;;11.55;6.53;;;8.80;99.90;;;7.24;54.89;97813.06;5009119;28;20095;-66
2021/04/18 07:32:27;;;;;;;12.98;6.30;;;8.90;99.90;;;7.38;54.03;97817.03;5007396;28;20046;-65
2021/04/18 07:34:55;;;;;;;11.30;6.00;;;8.80;99.90;;;7.53;54.02;97819.22;5022841;28;20133;-65
2021/04/18 07:37:26;;;;;;;11.02;6.38;;;8.70;99.90;;;7.52;54.59;97817.50;4995027;28;20046;-66
2021/04/18 07:40:00;;;;;;;13.40;6.55;;;8.80;99.90;;;7.78;53.74;97814.25;4989343;28;20050;-66
2021/04/18 07:42:32;;;;;;;15.43;7.07;;;8.90;99.90;;;7.65;54.60;97821.47;5003139;28;20103;-65
2021/04/18 07:45:05;;;;;;;13.63;7.18;;;8.90;99.90;;;7.48;55.66;97821.06;5008223;28;20053;-65
2021/04/18 07:47:35;;;;;;;14.63;7.43;;;8.90;99.90;;;7.86;54.44;97822.63;5009380;28;20111;-65
2021/04/18 07:50:09;;;;;;;17.83;7.60;;;9.10;99.90;;;7.53;55.04;97819.22;5008559;28;20042;-66
2021/04/18 07:52:41;;;;;;;14.55;7.30;;;8.80;99.90;;;8.09;55.23;97823.72;5009472;28;20054;-66
2021/04/18 07:55:10;;;;;;;14.05;7.38;;;9.30;99.90;;;7.89;55.08;97812.22;5009260;28;20046;-65
2021/04/18 07:57:37;;;;;;;14.40;7.97;;;9.10;99.90;;;7.91;55.95;97823.34;5009400;28;20057;-65
2021/04/18 08:00:06;;;;;;;16.05;8.98;;;9.30;99.90;;;7.93;56.17;97818.97;5008940;28;20169;-65
2021/04/18 08:02:32;;;;;;;19.13;9.90;;;9.30;99.90;;;8.13;56.12;97814.97;5004077;28;20050;-65
2021/04/18 08:05:00;;;;;;;17.27;10.13;;;9.60;99.90;;;8.10;56.42;97817.66;5007273;28;20042;-65
2021/04/18 08:07:27;;;;;;;18.02;9.90;;;9.60;99.90;;;8.22;56.50;97822.47;5008455;28;20104;-67
2021/04/18 08:10:31;;;;;;;19.73;9.90;;;9.70;99.90;;;8.31;57.15;97822.19;5016056;28;20046;-66
2021/04/18 08:13:21;;;;;;;16.40;9.75;;;9.80;99.90;;;8.20;57.25;97816.50;5007280;28;20058;-65
2021/04/18 08:15:53;;;;;;;17.95;9.77;;;9.70;99.90;;;8.15;57.20;97814.03;5002507;28;20069;-66
2021/04/18 08:18:47;;;;;;;17.88;9.38;;;9.70;99.90;;;7.88;58.09;97827.75;5002122;28;20515;-66
2021/04/18 08:21:40;;;;;;;19.25;10.73;;;9.50;99.90;;;8.03;58.40;97829.03;5009922;28;20052;-65
2021/04/18 08:24:18;;;;;;;18.98;10.60;;;9.50;99.90;;;8.12;58.83;97824.47;5006780;28;20105;-65
2021/04/18 08:27:00;;;;;;;21.13;11.13;;;9.40;99.90;;;7.79;59.36;97834.00;5020215;28;20510;-66
2021/04/18 08:29:27;;;;;;;17.95;10.63;;;9.40;99.90;;;7.90;59.48;97829.41;5012852;28;20510;-66
2021/04/18 08:32:10;;;;;;;20.83;11.13;;;9.40;99.90;;;7.81;60.50;97836.56;5011297;28;20038;-66
2021/04/18 08:34:43;;;;;;;20.95;11.15;;;9.20;99.90;;;7.67;60.76;97834.34;5008498;28;20080;-65
2021/04/18 08:37:19;;;;;;;25.60;12.13;;;9.10;99.90;;;7.28;62.57;97839.66;4977147;28;20407;-65
2021/04/18 08:39:46;;;;;;;20.67;12.68;;;8.60;99.90;;;7.39;62.56;97834.22;5010116;28;20037;-66
2021/04/18 08:42:26;;;;;;;24.02;11.98;;;8.60;99.90;;;7.46;62.83;97835.78;5002534;28;20483;-66
2021/04/18 08:44:54;;;;;;;23.95;12.82;;;8.70;99.90;;;7.32;63.96;97839.56;5011567;28;20053;-66
2021/04/18 08:47:26;;;;;;;20.77;12.75;;;8.50;99.90;;;7.18;64.84;97843.34;5010614;28;20054;-66
2021/04/18 08:50:09;;;;;;;23.83;11.45;;;8.40;99.90;;;7.40;64.58;97844.50;5011634;28;20073;-66
2021/04/18 08:52:36;;;;;;;22.25;12.60;;;8.60;99.90;;;7.36;66.00;97842.88;5011760;28;20483;-65
2021/04/18 08:55:15;;;;;;;22.77;12.45;;;8.50;99.90;;;6.93;66.52;97843.94;5012730;28;20060;-65
2021/04/18 08:57:41;;;;;;;22.65;12.95;;;8.20;99.90;;;7.03;67.75;97847.16;5011276;28;20042;-67
2021/04/18 09:00:15;;;;;;;22.17;14.10;;;8.20;99.90;;;7.05;68.36;97850.56;5013423;28;20049;-65
2021/04/18 09:02:41;;;;;;;24.17;12.15;;;8.20;99.90;;;7.22;67.01;97842.41;5011996;28;20046;-65
2021/04/18 09:05:15;;;;;;;22.77;12.57;;;8.40;99.90;;;7.76;66.44;97841.88;4990037;28;20038;-65
2021/04/18 09:07:44;;;;;;;20.58;11.77;;;8.80;99.90;;;8.27;64.47;97836.09;5009595;28;20061;-65
2021/04/18 09:10:12;;;;;;;21.67;12.48;;;9.50;99.90;;;8.55;64.11;97848.25;5012369;28;20064;-66
2021/04/18 09:12:39;;;;;;;18.67;11.40;;;10.00;99.90;;;9.28;62.12;97845.06;5012470;28;20050;-65
2021/04/18 09:15:08;;;;;;;18.63;11.52;;;10.60;99.90;;;9.25;60.68;97844.34;5027938;28;20069;-66
2021/04/18 09:17:35;;;;;;;19.95;11.32;;;11.10;99.90;;;9.52;61.50;97834.81;5008461;28;20114;-64
2021/04/18 09:20:18;;;;;;;22.58;11.98;;;11.20;99.90;;;9.69;59.26;97829.84;4992283;28;20041;-66
2021/04/18 09:22:44;;;;;;;21.45;12.95;;;11.50;99.90;;;9.27;58.04;97845.97;5001690;28;20057;-64
2021/04/18 09:25:19;;;;;;;21.40;12.10;;;11.40;99.90;;;9.68;57.88;97832.53;5002281;28;20042;-66
2021/04/18 09:27:55;;;;;;;19.60;12.52;;;11.70;99.90;;;9.61;58.07;97839.66;5007081;28;20046;-64
2021/04/18 09:30:29;;;;;;;18.10;11.00;;;11.50;99.90;;;9.84;55.89;97836.28;4997800;28;20045;-64
2021/04/18 09:33:03;;;;;;;16.92;11.23;;;11.80;99.90;;;10.67;55.26;97836.69;5009445;28;20111;-65
2021/04/18 09:35:30;;;;;;;19.65;11.90;;;12.50;99.90;;;10.42;54.55;97833.31;5011991;28;20050;-65
2021/04/18 09:38:00;;;;;;;18.05;11.82;;;12.90;99.90;;;10.79;53.88;97829.31;5001054;28;20115;-65
2021/04/18 09:40:30;;;;;;;22.00;11.60;;;12.80;99.90;;;10.62;52.79;97833.38;5003366;28;20053;-64
2021/04/18 09:42:57;;;;;;;15.50;10.30;;;12.50;99.90;;;11.85;53.68;97835.31;5009735;28;20037;-65
2021/04/18 09:45:32;;;;;;;14.93;9.95;;;13.40;99.90;;;11.98;50.21;97831.28;5007298;28;20066;-65
2021/04/18 09:48:19;;;;;;;17.17;11.43;;;14.00;99.90;;;11.47;50.06;97828.25;5010078;28;20045;-65
2021/04/18 09:51:03;;;;;;;12.50;9.65;;;13.80;99.90;;;11.89;50.27;97829.09;5011798;28;20046;-65
2021/04/18 09:53:29;;;;;;;16.38;10.90;;;14.30;99.90;;;11.73;50.69;97827.13;5010268;28;20049;-65
2021/04/18 09:56:08;;;;;;;14.85;9.38;;;14.30;99.90;;;11.30;51.76;97833.31;5010949;28;20037;-65
2021/04/18 09:58:40;;;;;;;19.65;10.55;;;13.90;99.90;;;11.47;51.84;97830.84;5006926;28;20038;-64
2021/04/18 10:01:33;;;;;;;15.93;10.40;;;13.60;99.90;;;10.85;54.16;97829.91;5011730;28;20065;-64
2021/04/18 10:04:00;;;;;;;15.93;9.45;;;13.10;99.90;;;11.76;51.15;97830.50;5010018;28;20451;-64
2021/04/18 10:06:44;;;;;;;16.90;11.18;;;13.50;99.90;;;10.79;52.57;97821.53;5011322;28;20145;-64
2021/04/18 10:09:11;;;;;;;15.10;9.90;;;12.90;99.90;;;11.50;51.28;97820.31;5011280;28;20108;-65
2021/04/18 10:11:37;;;;;;;14.25;9.57;;;13.30;99.90;;;11.58;50.90;97816.53;4989984;28;20042;-64
2021/04/18 10:14:05;;;;;;;13.45;9.70;;;13.50;99.90;;;11.17;51.22;97819.97;5003815;28;20088;-65
2021/04/18 10:16:42;;;;;;;16.85;10.20;;;13.50;99.90;;;10.45;52.62;97830.63;5011031;28;20053;-64
2021/04/18 10:19:16;;;;;;;16.35;10.57;;;13.10;99.90;;;10.19;53.27;97828.94;4976668;28;20059;-65
2021/04/18 10:22:09;;;;;;;16.88;10.15;;;12.10;99.90;;;9.93;53.42;97838.53;5007802;28;20115;-64
2021/04/18 10:24:42;;;;;;;16.50;10.55;;;11.60;99.90;;;10.10;53.41;97831.88;5010358;28;20041;-67
2021/04/18 10:27:10;;;;;;;;;;;11.60;99.90;;;10.22;53.49;97834.03;5000807;28;20105;-65
2021/04/18 10:29:38;;;;;;;14.95;10.02;;;12.00;99.90;;;10.20;53.50;97836.69;5006674;28;20002;-65
2021/04/18 10:32:06;;;;;;;19.05;11.07;;;12.00;99.90;;;10.04;54.00;97835.56;5024369;28;20053;-65
2021/04/18 10:34:33;;;;;;;17.48;10.73;;;12.10;99.90;;;10.08;54.33;97826.78;5009323;28;20057;-65
2021/04/18 10:37:01;;;;;;;16.25;9.68;;;11.80;99.90;;;10.59;54.50;97832.69;5010890;28;20046;-65